createdAt,value
2019-03-19T00:02:04.037Z,99.90
2019-03-19T00:04:33.442Z,99.90
2019-03-19T00:07:02.778Z,99.90
2019-03-19T00:09:32.190Z,99.90
2019-03-19T00:12:01.518Z,99.90
2019-03-19T00:14:31.246Z,99.90
2019-03-19T00:17:00.562Z,99.90
2019-03-19T00:19:29.892Z,99.90
2019-03-19T00:21:59.217Z,99.90
2019-03-19T00:24:28.546Z,99.90
2019-03-19T00:26:57.883Z,99.90
2019-03-19T00:29:27.208Z,99.90
2019-03-19T00:31:56.534Z,99.90
2019-03-19T00:34:25.866Z,99.90
2019-03-19T00:36:55.266Z,99.90
2019-03-19T00:39:24.583Z,99.90
2019-03-19T00:41:54.175Z,99.90
2019-03-19T00:44:23.512Z,99.90
2019-03-19T00:46:52.851Z,99.90
2019-03-19T00:49:22.175Z,99.90
2019-03-19T00:51:51.696Z,99.90
2019-03-19T00:54:21.027Z,99.90
2019-03-19T00:56:50.562Z,99.90
2019-03-19T00:59:19.891Z,99.90
2019-03-19T01:01:49.216Z,99.90
2019-03-19T01:04:18.546Z,99.90
2019-03-19T01:06:47.871Z,99.90
2019-03-19T01:09:17.206Z,99.90
2019-03-19T01:11:46.538Z,99.90
2019-03-19T01:14:15.866Z,99.90
2019-03-19T01:16:45.219Z,99.90
2019-03-19T01:19:14.550Z,99.90
2019-03-19T01:21:43.882Z,99.90
2019-03-19T01:24:13.200Z,99.90
2019-03-19T01:26:42.526Z,99.90
2019-03-19T01:29:11.856Z,99.90
2019-03-19T01:31:41.193Z,99.90
2019-03-19T01:34:10.511Z,99.90
2019-03-19T01:36:39.835Z,99.90
2019-03-19T01:39:09.159Z,99.90
2019-03-19T01:41:38.482Z,99.90
2019-03-19T01:44:07.805Z,99.90
2019-03-19T01:46:37.197Z,99.90
2019-03-19T01:49:06.522Z,99.90
2019-03-19T01:51:35.839Z,99.90
2019-03-19T01:54:05.258Z,99.90
2019-03-19T01:56:34.608Z,99.90
2019-03-19T01:59:03.931Z,99.90
2019-03-19T02:01:33.256Z,99.90
2019-03-19T02:04:02.573Z,99.90
2019-03-19T02:06:31.896Z,99.90
2019-03-19T02:09:01.210Z,99.90
2019-03-19T02:11:30.704Z,99.90
2019-03-19T02:14:00.033Z,99.90
2019-03-19T02:16:29.364Z,99.90
2019-03-19T02:18:58.701Z,99.90
2019-03-19T02:21:28.077Z,99.90
2019-03-19T02:23:57.402Z,99.90
2019-03-19T02:26:26.791Z,99.90
2019-03-19T02:28:56.125Z,99.90
2019-03-19T02:31:25.535Z,99.90
2019-03-19T02:33:54.912Z,99.90
2019-03-19T02:36:24.233Z,99.90
2019-03-19T02:38:53.634Z,99.90
2019-03-19T02:41:22.969Z,99.90
2019-03-19T02:43:52.356Z,99.90
2019-03-19T02:46:21.683Z,99.90
2019-03-19T02:48:51.013Z,99.90
2019-03-19T02:51:20.403Z,99.90
2019-03-19T02:53:49.803Z,99.90
2019-03-19T02:56:32.038Z,99.90
2019-03-19T02:58:50.226Z,99.90
2019-03-19T03:01:19.544Z,99.90
2019-03-19T03:03:49.474Z,99.90
2019-03-19T03:06:18.896Z,99.90
2019-03-19T03:08:48.539Z,99.90
2019-03-19T03:11:17.873Z,99.90
2019-03-19T03:13:47.285Z,99.90
2019-03-19T03:16:16.675Z,99.90
2019-03-19T03:18:46.071Z,99.90
2019-03-19T03:21:15.436Z,99.90
2019-03-19T03:23:44.948Z,99.90
2019-03-19T03:26:14.344Z,99.90
2019-03-19T03:28:43.792Z,99.90
2019-03-19T03:31:13.148Z,99.90
2019-03-19T03:33:42.588Z,99.90
2019-03-19T03:36:11.992Z,99.90
2019-03-19T03:38:41.338Z,99.90
2019-03-19T03:41:10.877Z,99.90
2019-03-19T03:43:40.205Z,99.90
2019-03-19T03:46:09.536Z,99.90
2019-03-19T03:48:38.866Z,99.90
2019-03-19T03:51:08.186Z,99.90
2019-03-19T03:53:37.508Z,99.90
2019-03-19T03:56:06.919Z,99.90
2019-03-19T03:58:36.327Z,99.90
2019-03-19T04:01:05.853Z,99.90
2019-03-19T04:03:35.258Z,99.90
2019-03-19T04:06:04.665Z,99.90
2019-03-19T04:08:33.987Z,99.90
2019-03-19T04:11:03.481Z,99.90
2019-03-19T04:13:33.011Z,99.90
2019-03-19T04:16:02.419Z,99.90
2019-03-19T04:18:31.841Z,99.90
2019-03-19T04:21:01.256Z,99.90
2019-03-19T04:23:30.653Z,99.90
2019-03-19T04:25:59.983Z,99.90
2019-03-19T04:28:29.540Z,99.90
2019-03-19T04:30:58.864Z,99.90
2019-03-19T04:33:28.196Z,99.90
2019-03-19T04:35:57.535Z,99.90
2019-03-19T04:38:26.943Z,99.90
2019-03-19T04:40:56.269Z,99.90
2019-03-19T04:43:25.601Z,99.90
2019-03-19T04:45:55.006Z,99.90
2019-03-19T04:48:24.340Z,99.90
2019-03-19T04:50:53.662Z,99.90
2019-03-19T04:53:24.280Z,99.90
2019-03-19T04:55:53.799Z,99.90
2019-03-19T04:58:23.127Z,99.90
2019-03-19T05:00:52.461Z,99.90
2019-03-19T05:03:21.786Z,99.90
2019-03-19T05:05:51.119Z,99.90
2019-03-19T05:08:20.687Z,99.90
2019-03-19T05:10:50.027Z,99.90
2019-03-19T05:13:19.432Z,99.90
2019-03-19T05:15:48.843Z,99.90
2019-03-19T05:18:18.183Z,99.90
2019-03-19T05:20:47.522Z,99.90
2019-03-19T05:23:16.867Z,99.90
2019-03-19T05:25:46.195Z,99.90
2019-03-19T05:28:15.526Z,99.90
2019-03-19T05:30:44.860Z,99.90
2019-03-19T05:33:14.776Z,99.90
2019-03-19T05:35:44.122Z,99.90
2019-03-19T05:38:13.463Z,99.90
2019-03-19T05:40:42.786Z,99.90
2019-03-19T05:43:12.386Z,99.90
2019-03-19T05:45:41.707Z,99.90
2019-03-19T05:48:11.045Z,99.90
2019-03-19T05:50:40.462Z,99.90
2019-03-19T05:53:10.017Z,99.90
2019-03-19T05:55:39.506Z,99.90
2019-03-19T05:58:08.842Z,99.90
2019-03-19T06:00:38.503Z,99.90
2019-03-19T06:03:07.840Z,99.90
2019-03-19T06:05:37.164Z,99.90
2019-03-19T06:08:06.494Z,99.90
2019-03-19T06:10:35.819Z,99.90
2019-03-19T06:13:05.286Z,99.90
2019-03-19T06:15:34.636Z,99.90
2019-03-19T06:18:03.962Z,99.90
2019-03-19T06:20:33.287Z,99.90
2019-03-19T06:23:02.611Z,99.90
2019-03-19T06:25:31.939Z,99.90
2019-03-19T06:28:01.337Z,99.90
2019-03-19T06:30:30.659Z,99.90
2019-03-19T06:32:59.978Z,99.90
2019-03-19T06:35:29.565Z,99.90
2019-03-19T06:37:58.976Z,99.90
2019-03-19T06:40:28.306Z,99.90
2019-03-19T06:42:57.639Z,99.90
2019-03-19T06:45:26.962Z,99.90
2019-03-19T06:47:56.358Z,99.90
2019-03-19T06:50:28.016Z,99.90
2019-03-19T06:52:56.710Z,99.90
2019-03-19T06:55:26.154Z,99.90
2019-03-19T06:57:55.479Z,99.90
2019-03-19T07:00:24.820Z,99.90
2019-03-19T07:02:54.143Z,99.90
2019-03-19T07:05:23.658Z,99.90
2019-03-19T07:07:52.985Z,99.90
2019-03-19T07:10:22.590Z,99.90
2019-03-19T07:12:52.011Z,99.90
2019-03-19T07:15:21.403Z,99.90
2019-03-19T07:17:50.824Z,99.90
2019-03-19T07:20:20.170Z,99.90
2019-03-19T07:22:49.509Z,99.90
2019-03-19T07:25:18.959Z,99.90
2019-03-19T07:27:48.303Z,99.90
2019-03-19T07:30:18.106Z,99.90
2019-03-19T07:32:47.447Z,99.90
2019-03-19T07:35:16.949Z,99.90
2019-03-19T07:37:46.366Z,99.90
2019-03-19T07:40:16.033Z,99.90
2019-03-19T07:42:45.343Z,99.90
2019-03-19T07:45:15.435Z,99.90
2019-03-19T07:47:44.842Z,99.90
2019-03-19T07:50:14.939Z,99.90
2019-03-19T07:52:44.387Z,99.90
2019-03-19T07:55:13.772Z,99.90
2019-03-19T07:57:43.207Z,99.90
2019-03-19T08:00:14.677Z,99.90
2019-03-19T08:02:44.278Z,99.90
2019-03-19T08:05:13.791Z,99.90
2019-03-19T08:07:43.114Z,99.90
2019-03-19T08:10:12.476Z,99.90
2019-03-19T08:12:42.039Z,99.90
2019-03-19T08:15:12.650Z,99.90
2019-03-19T08:17:43.102Z,99.90
2019-03-19T08:20:12.687Z,99.90
2019-03-19T08:22:42.019Z,99.90
2019-03-19T08:25:11.422Z,99.90
2019-03-19T08:27:40.839Z,99.90
2019-03-19T08:30:12.846Z,99.90
2019-03-19T08:32:42.451Z,99.90
2019-03-19T08:35:11.837Z,99.90
2019-03-19T08:37:41.202Z,99.90
2019-03-19T08:40:11.615Z,99.90
2019-03-19T08:42:41.247Z,99.90
2019-03-19T08:45:12.323Z,99.90
2019-03-19T08:47:41.761Z,99.90
2019-03-19T08:50:13.894Z,99.90
2019-03-19T08:52:43.256Z,99.90
2019-03-19T08:55:12.582Z,99.90
2019-03-19T08:57:41.896Z,99.90
2019-03-19T09:00:14.679Z,99.90
2019-03-19T09:02:44.294Z,99.90
2019-03-19T09:05:14.019Z,99.90
2019-03-19T09:07:43.369Z,99.90
2019-03-19T09:10:12.803Z,99.90
2019-03-19T09:12:42.380Z,99.90
2019-03-19T09:15:12.294Z,99.90
2019-03-19T09:17:41.643Z,99.90
2019-03-19T09:20:12.257Z,99.90
2019-03-19T09:22:41.586Z,99.90
2019-03-19T09:25:11.427Z,99.90
2019-03-19T09:27:40.829Z,99.90
2019-03-19T09:30:12.843Z,99.90
2019-03-19T09:32:42.244Z,99.90
2019-03-19T09:35:11.581Z,99.90
2019-03-19T09:37:44.931Z,99.90
2019-03-19T09:40:13.840Z,99.90
2019-03-19T09:42:43.999Z,99.90
2019-03-19T09:45:13.629Z,99.90
2019-03-19T09:47:42.979Z,99.90
2019-03-19T09:50:13.883Z,99.90
2019-03-19T09:52:43.250Z,99.90
2019-03-19T09:55:13.004Z,99.90
2019-03-19T09:57:42.690Z,99.90
2019-03-19T10:00:15.624Z,99.90
2019-03-19T10:02:44.949Z,99.90
2019-03-19T10:05:14.602Z,99.90
2019-03-19T10:07:43.930Z,99.90
2019-03-19T10:10:14.959Z,99.90
2019-03-19T10:12:44.358Z,99.90
2019-03-19T10:15:14.546Z,99.90
2019-03-19T10:17:44.159Z,99.90
2019-03-19T10:20:14.666Z,99.90
2019-03-19T10:22:44.019Z,99.90
2019-03-19T10:25:13.360Z,99.90
2019-03-19T10:27:43.038Z,99.90
2019-03-19T10:30:17.453Z,99.90
2019-03-19T10:32:46.866Z,99.90
2019-03-19T10:35:16.675Z,99.90
2019-03-19T10:37:46.017Z,99.90
2019-03-19T10:40:15.455Z,99.90
2019-03-19T10:42:44.859Z,99.90
2019-03-19T10:45:14.464Z,99.90
2019-03-19T10:47:43.797Z,99.90
2019-03-19T10:50:18.253Z,99.90
2019-03-19T10:52:47.662Z,99.90
2019-03-19T10:55:17.287Z,99.90
2019-03-19T10:57:47.206Z,99.90
2019-03-19T11:00:21.643Z,99.90
2019-03-19T11:02:51.892Z,99.90
2019-03-19T11:05:21.656Z,99.90
2019-03-19T11:07:51.085Z,99.90
2019-03-19T11:10:20.502Z,99.90
2019-03-19T11:12:49.826Z,99.90
2019-03-19T11:15:19.263Z,99.90
2019-03-19T11:17:48.582Z,99.90
2019-03-19T11:20:18.298Z,99.90
2019-03-19T11:22:47.715Z,99.90
2019-03-19T11:25:17.322Z,99.90
2019-03-19T11:27:46.662Z,99.90
2019-03-19T11:30:18.258Z,99.30
2019-03-19T11:32:47.578Z,97.40
2019-03-19T11:35:17.128Z,97.40
2019-03-19T11:37:46.474Z,97.10
2019-03-19T11:40:15.938Z,98.20
2019-03-19T11:42:45.258Z,96.50
2019-03-19T11:45:15.197Z,92.00
2019-03-19T11:47:44.593Z,92.80
2019-03-19T11:50:16.154Z,92.80
2019-03-19T11:52:45.487Z,92.10
2019-03-19T11:55:14.970Z,92.30
2019-03-19T11:57:44.319Z,91.10
2019-03-19T12:00:27.607Z,91.20
2019-03-19T12:02:56.942Z,88.90
2019-03-19T12:05:26.302Z,90.50
2019-03-19T12:07:55.653Z,90.70
2019-03-19T12:10:24.992Z,91.20
2019-03-19T12:12:54.398Z,88.50
2019-03-19T12:15:23.738Z,86.60
2019-03-19T12:17:53.366Z,80.90
2019-03-19T12:20:22.715Z,82.60
2019-03-19T12:22:52.122Z,81.90
2019-03-19T12:25:21.446Z,83.20
2019-03-19T12:27:50.803Z,81.70
2019-03-19T12:30:22.641Z,79.40
2019-03-19T12:32:51.256Z,80.50
2019-03-19T12:35:20.904Z,78.30
2019-03-19T12:37:50.242Z,77.70
2019-03-19T12:40:20.279Z,72.90
2019-03-19T12:42:50.175Z,71.70
2019-03-19T12:45:19.624Z,72.20
2019-03-19T12:47:49.024Z,74.90
2019-03-19T12:50:19.150Z,70.00
2019-03-19T12:52:48.548Z,67.70
2019-03-19T12:55:17.869Z,66.60
2019-03-19T12:57:47.505Z,65.50
2019-03-19T13:00:18.870Z,64.50
2019-03-19T13:02:48.200Z,64.00
2019-03-19T13:05:17.958Z,64.70
2019-03-19T13:07:47.349Z,65.40
2019-03-19T13:10:17.636Z,64.40
2019-03-19T13:12:47.031Z,63.70
2019-03-19T13:15:19.136Z,60.80
2019-03-19T13:17:48.252Z,61.90
2019-03-19T13:20:17.917Z,61.50
2019-03-19T13:22:47.251Z,62.40
2019-03-19T13:25:17.158Z,62.90
2019-03-19T13:27:46.479Z,60.40
2019-03-19T13:30:17.605Z,60.50
2019-03-19T13:32:46.931Z,58.40
2019-03-19T13:35:16.287Z,59.00
2019-03-19T13:37:45.679Z,60.10
2019-03-19T13:40:15.940Z,59.50
2019-03-19T13:42:45.269Z,58.90
2019-03-19T13:45:15.062Z,58.60
2019-03-19T13:47:44.463Z,56.50
2019-03-19T13:50:14.070Z,56.90
2019-03-19T13:52:43.463Z,54.40
2019-03-19T13:55:13.538Z,55.40
2019-03-19T13:57:42.857Z,55.00
2019-03-19T14:00:13.004Z,52.20
2019-03-19T14:02:42.405Z,53.20
2019-03-19T14:05:11.751Z,52.30
2019-03-19T14:07:41.303Z,52.00
2019-03-19T14:10:11.266Z,52.20
2019-03-19T14:12:40.579Z,52.80
2019-03-19T14:15:11.862Z,53.40
2019-03-19T14:17:41.201Z,51.80
2019-03-19T14:20:12.410Z,52.90
2019-03-19T14:22:41.822Z,50.90
2019-03-19T14:25:11.175Z,52.30
2019-03-19T14:27:40.516Z,52.60
2019-03-19T14:30:12.711Z,52.00
2019-03-19T14:32:42.049Z,52.00
2019-03-19T14:35:11.375Z,49.60
2019-03-19T14:37:40.699Z,50.60
2019-03-19T14:40:11.762Z,50.80
2019-03-19T14:42:41.108Z,50.30
2019-03-19T14:45:10.841Z,50.00
2019-03-19T14:47:40.179Z,50.00
2019-03-19T14:50:10.478Z,50.20
2019-03-19T14:52:39.807Z,49.30
2019-03-19T14:55:09.155Z,49.20
2019-03-19T14:57:38.479Z,47.80
2019-03-19T15:00:09.464Z,48.90
2019-03-19T15:02:38.872Z,48.40
2019-03-19T15:05:08.570Z,49.00
2019-03-19T15:07:37.898Z,47.90
2019-03-19T15:10:09.483Z,48.30
2019-03-19T15:12:38.824Z,50.00
2019-03-19T15:15:09.019Z,49.00
2019-03-19T15:17:38.356Z,50.40
2019-03-19T15:20:10.429Z,50.50
2019-03-19T15:22:39.771Z,50.40
2019-03-19T15:25:09.243Z,51.80
2019-03-19T15:27:38.593Z,54.30
2019-03-19T15:30:09.270Z,54.00
2019-03-19T15:32:38.600Z,56.10
2019-03-19T15:35:09.731Z,56.20
2019-03-19T15:37:39.131Z,55.20
2019-03-19T15:40:10.636Z,56.90
2019-03-19T15:42:39.970Z,57.90
2019-03-19T15:45:10.364Z,56.70
2019-03-19T15:47:39.705Z,57.60
2019-03-19T15:50:11.558Z,57.50
2019-03-19T15:52:40.874Z,58.70
2019-03-19T15:55:10.350Z,59.80
2019-03-19T15:57:39.972Z,58.80
2019-03-19T16:00:12.639Z,60.90
2019-03-19T16:02:41.966Z,60.80
2019-03-19T16:05:12.198Z,60.70
2019-03-19T16:07:41.845Z,60.00
2019-03-19T16:10:12.288Z,59.90
2019-03-19T16:12:41.614Z,60.00
2019-03-19T16:15:12.144Z,61.10
2019-03-19T16:17:41.584Z,61.60
2019-03-19T16:20:13.631Z,62.50
2019-03-19T16:22:42.947Z,63.50
2019-03-19T16:25:12.599Z,63.30
2019-03-19T16:27:42.051Z,63.10
2019-03-19T16:30:13.210Z,63.20
2019-03-19T16:32:42.538Z,63.00
2019-03-19T16:35:12.040Z,64.10
2019-03-19T16:37:41.446Z,64.10
2019-03-19T16:40:13.650Z,64.90
2019-03-19T16:42:42.987Z,65.40
2019-03-19T16:45:12.803Z,67.00
2019-03-19T16:47:42.211Z,67.20
2019-03-19T16:50:13.798Z,67.40
2019-03-19T16:52:43.134Z,67.60
2019-03-19T16:55:13.102Z,68.90
2019-03-19T16:57:42.419Z,70.00
2019-03-19T17:00:14.289Z,69.60
2019-03-19T17:02:43.610Z,71.40
2019-03-19T17:05:13.866Z,70.30
2019-03-19T17:07:43.699Z,71.30
2019-03-19T17:10:14.398Z,72.30
2019-03-19T17:12:43.734Z,72.50
2019-03-19T17:15:14.117Z,73.50
2019-03-19T17:17:43.509Z,73.60
2019-03-19T17:20:14.034Z,75.90
2019-03-19T17:22:43.473Z,76.70
2019-03-19T17:25:13.966Z,77.30
2019-03-19T17:27:43.690Z,77.50
2019-03-19T17:30:17.365Z,78.80
2019-03-19T17:32:47.379Z,79.40
2019-03-19T17:35:16.707Z,80.20
2019-03-19T17:37:46.067Z,81.70
2019-03-19T17:40:15.664Z,82.60
2019-03-19T17:42:44.984Z,82.80
2019-03-19T17:45:14.890Z,81.40
2019-03-19T17:47:44.267Z,83.50
2019-03-19T17:50:16.272Z,83.60
2019-03-19T17:52:45.637Z,85.40
2019-03-19T17:55:15.177Z,85.30
2019-03-19T17:57:44.895Z,87.90
2019-03-19T18:00:17.585Z,87.60
2019-03-19T18:02:46.910Z,89.00
2019-03-19T18:05:16.355Z,89.90
2019-03-19T18:07:45.678Z,89.90
2019-03-19T18:10:15.183Z,90.20
2019-03-19T18:12:44.585Z,90.40
2019-03-19T18:15:13.974Z,91.00
2019-03-19T18:17:43.379Z,91.50
2019-03-19T18:20:12.743Z,92.50
2019-03-19T18:22:42.148Z,92.70
2019-03-19T18:25:11.510Z,93.20
2019-03-19T18:27:58.591Z,94.40
2019-03-19T18:30:27.938Z,95.90
2019-03-19T18:32:57.274Z,95.90
2019-03-19T18:35:27.066Z,96.30
2019-03-19T18:37:56.643Z,97.40
2019-03-19T18:40:25.980Z,98.10
2019-03-19T18:42:55.314Z,99.30
2019-03-19T18:45:24.655Z,99.90
2019-03-19T18:47:53.983Z,99.90
2019-03-19T18:50:23.319Z,99.90
2019-03-19T18:52:52.650Z,99.90
2019-03-19T18:55:21.992Z,99.90
2019-03-19T18:57:51.414Z,99.90
2019-03-19T19:00:20.809Z,99.90
2019-03-19T19:02:51.181Z,99.90
2019-03-19T19:05:20.742Z,99.90
2019-03-19T19:07:50.082Z,99.90
2019-03-19T19:10:21.360Z,99.90
2019-03-19T19:12:51.047Z,99.90
2019-03-19T19:15:20.459Z,99.90
2019-03-19T19:17:49.794Z,99.90
2019-03-19T19:20:19.718Z,99.90
2019-03-19T19:22:49.135Z,99.90
2019-03-19T19:25:18.568Z,99.90
2019-03-19T19:27:47.984Z,99.90
2019-03-19T19:30:18.646Z,99.90
2019-03-19T19:32:48.323Z,99.90
2019-03-19T19:35:17.659Z,99.90
2019-03-19T19:37:47.532Z,99.90
2019-03-19T19:40:17.136Z,99.90
2019-03-19T19:42:46.536Z,99.90
2019-03-19T19:45:15.962Z,99.90
2019-03-19T19:47:45.307Z,99.90
2019-03-19T19:50:15.707Z,99.90
2019-03-19T19:52:45.075Z,99.90
2019-03-19T19:55:14.814Z,99.90
2019-03-19T19:57:44.750Z,99.90
2019-03-19T20:00:15.688Z,99.90
2019-03-19T20:02:45.409Z,99.90
2019-03-19T20:05:14.948Z,99.90
2019-03-19T20:07:44.318Z,99.90
2019-03-19T20:10:16.010Z,99.90
2019-03-19T20:12:45.411Z,99.90
2019-03-19T20:15:14.767Z,99.90
2019-03-19T20:17:44.101Z,99.90
2019-03-19T20:20:15.259Z,99.90
2019-03-19T20:22:44.882Z,99.90
2019-03-19T20:25:14.550Z,99.90
2019-03-19T20:27:43.981Z,99.90
2019-03-19T20:30:16.071Z,99.90
2019-03-19T20:32:45.398Z,99.90
2019-03-19T20:35:14.726Z,99.90
2019-03-19T20:37:44.118Z,99.90
2019-03-19T20:40:13.767Z,99.90
2019-03-19T20:42:43.083Z,99.90
2019-03-19T20:45:12.766Z,99.90
2019-03-19T20:47:42.150Z,99.90
2019-03-19T20:50:14.650Z,99.90
2019-03-19T20:52:43.986Z,99.90
2019-03-19T20:55:13.610Z,99.90
2019-03-19T20:57:42.960Z,99.90
2019-03-19T21:00:15.240Z,99.90
2019-03-19T21:02:44.566Z,99.90
2019-03-19T21:05:14.202Z,99.90
2019-03-19T21:07:44.051Z,99.90
2019-03-19T21:10:16.245Z,99.90
2019-03-19T21:12:45.602Z,99.90
2019-03-19T21:15:19.936Z,99.90
2019-03-19T21:17:49.600Z,99.90
2019-03-19T21:20:19.279Z,99.90
2019-03-19T21:22:48.680Z,99.90
2019-03-19T21:25:18.517Z,99.90
2019-03-19T21:27:48.354Z,99.90
2019-03-19T21:30:17.720Z,99.90
2019-03-19T21:32:47.460Z,99.90
2019-03-19T21:35:20.110Z,99.90
2019-03-19T21:37:49.841Z,99.90
2019-03-19T21:40:19.668Z,99.90
2019-03-19T21:42:49.094Z,99.90
2019-03-19T21:45:18.497Z,99.90
2019-03-19T21:47:47.913Z,99.90
2019-03-19T21:50:17.362Z,99.90
2019-03-19T21:52:46.699Z,99.90
2019-03-19T21:55:16.043Z,99.90
2019-03-19T21:57:45.692Z,99.90
2019-03-19T22:00:16.358Z,99.90
2019-03-19T22:02:46.246Z,99.90
2019-03-19T22:05:15.879Z,99.90
2019-03-19T22:07:45.219Z,99.90
2019-03-19T22:10:15.336Z,99.90
2019-03-19T22:12:44.769Z,99.90
2019-03-19T22:15:16.654Z,99.90
2019-03-19T22:17:46.062Z,99.90
2019-03-19T22:20:16.058Z,99.90
2019-03-19T22:22:45.630Z,99.90
2019-03-19T22:25:15.063Z,99.90
2019-03-19T22:27:44.739Z,99.90
2019-03-19T22:30:17.117Z,99.90
2019-03-19T22:32:46.532Z,99.90
2019-03-19T22:35:16.251Z,99.90
2019-03-19T22:37:45.603Z,99.90
2019-03-19T22:40:15.755Z,99.90
2019-03-19T22:42:45.403Z,99.90
2019-03-19T22:45:15.011Z,99.90
2019-03-19T22:47:44.435Z,99.90
2019-03-19T22:50:14.286Z,99.90
2019-03-19T22:52:43.710Z,99.90
2019-03-19T22:55:13.159Z,99.90
2019-03-19T22:57:42.580Z,99.90
2019-03-19T23:00:17.743Z,99.90
2019-03-19T23:02:47.167Z,99.90
2019-03-19T23:05:16.486Z,99.90
2019-03-19T23:07:45.838Z,99.90
2019-03-19T23:10:15.176Z,99.90
2019-03-19T23:12:44.495Z,99.90
2019-03-19T23:15:13.866Z,99.90
2019-03-19T23:17:43.305Z,99.90
2019-03-19T23:20:12.967Z,99.90
2019-03-19T23:22:42.299Z,99.90
2019-03-19T23:25:11.840Z,99.90
2019-03-19T23:27:41.236Z,99.90
2019-03-19T23:30:10.772Z,99.90
2019-03-19T23:32:40.095Z,99.90
2019-03-19T23:35:09.522Z,99.90
2019-03-19T23:37:38.955Z,99.90
2019-03-19T23:40:08.514Z,99.90
2019-03-19T23:42:37.902Z,99.90
2019-03-19T23:45:07.656Z,99.90
2019-03-19T23:47:37.047Z,99.90
2019-03-19T23:50:07.910Z,99.90
2019-03-19T23:52:37.240Z,99.90
2019-03-19T23:55:06.922Z,99.90
2019-03-19T23:57:36.310Z,99.90
